createdAt,value
2019-06-08T00:00:48.855Z,21.03
2019-06-08T00:03:22.650Z,20.67
2019-06-08T00:05:55.750Z,19.73
2019-06-08T00:08:28.634Z,21.73
2019-06-08T00:11:01.725Z,22.47
2019-06-08T00:13:36.361Z,24.30
2019-06-08T00:16:09.129Z,24.07
2019-06-08T00:18:41.804Z,23.43
2019-06-08T00:21:15.505Z,22.50
2019-06-08T00:23:48.606Z,22.77
2019-06-08T00:26:22.078Z,21.70
2019-06-08T00:28:56.010Z,22.33
2019-06-08T00:31:28.992Z,23.33
2019-06-08T00:34:01.982Z,20.80
2019-06-08T00:36:34.864Z,22.13
2019-06-08T00:39:10.410Z,21.27
2019-06-08T00:41:43.087Z,22.37
2019-06-08T00:44:17.049Z,22.00
2019-06-08T00:46:49.880Z,23.77
2019-06-08T00:49:22.741Z,23.63
2019-06-08T00:51:55.548Z,23.57
2019-06-08T00:54:29.755Z,21.30
2019-06-08T00:57:02.749Z,21.30
2019-06-08T00:59:35.327Z,22.70
2019-06-08T01:02:08.415Z,21.97
2019-06-08T01:04:41.006Z,24.13
2019-06-08T01:07:13.879Z,24.03
2019-06-08T01:09:46.972Z,23.73
2019-06-08T01:12:20.491Z,21.17
2019-06-08T01:14:53.964Z,22.00
2019-06-08T01:17:27.459Z,22.13
2019-06-08T01:20:00.345Z,22.43
2019-06-08T01:22:33.128Z,23.33
2019-06-08T01:25:06.851Z,21.73
2019-06-08T01:27:39.509Z,22.20
2019-06-08T01:30:13.009Z,22.50
2019-06-08T01:32:45.685Z,22.50
2019-06-08T01:35:18.678Z,21.93
2019-06-08T01:37:51.216Z,21.07
2019-06-08T01:40:25.293Z,25.27
2019-06-08T01:42:57.853Z,24.10
2019-06-08T01:45:32.926Z,26.70
2019-06-08T01:48:19.230Z,27.07
2019-06-08T01:50:41.920Z,26.23
2019-06-08T01:53:14.905Z,23.53
2019-06-08T01:55:47.789Z,24.03
2019-06-08T01:58:20.469Z,27.63
2019-06-08T02:00:52.703Z,26.83
2019-06-08T02:03:26.257Z,27.50
2019-06-08T02:05:59.128Z,28.93
2019-06-08T02:08:32.645Z,30.07
2019-06-08T02:11:05.672Z,30.27
2019-06-08T02:13:38.804Z,30.07
2019-06-08T02:16:13.625Z,30.20
2019-06-08T02:18:50.768Z,31.20
2019-06-08T02:21:20.631Z,31.30
2019-06-08T02:23:54.944Z,30.03
2019-06-08T02:26:41.415Z,31.00
2019-06-08T02:29:15.869Z,31.63
2019-06-08T02:31:50.285Z,30.90
2019-06-08T02:34:25.137Z,31.77
2019-06-08T02:36:58.306Z,33.07
2019-06-08T02:39:44.914Z,32.63
2019-06-08T02:42:19.228Z,34.07
2019-06-08T02:44:53.037Z,33.87
2019-06-08T02:47:28.428Z,34.87
2019-06-08T02:50:03.521Z,33.30
2019-06-08T02:52:48.335Z,32.57
2019-06-08T02:55:33.062Z,33.80
2019-06-08T02:58:08.991Z,34.07
2019-06-08T03:00:43.722Z,34.63
2019-06-08T03:03:18.822Z,35.27
2019-06-08T03:05:53.183Z,35.20
2019-06-08T03:08:42.104Z,33.93
2019-06-08T03:11:17.477Z,32.80
2019-06-08T03:13:53.919Z,34.83
2019-06-08T03:16:28.777Z,34.70
2019-06-08T03:19:19.919Z,32.03
2019-06-08T03:21:40.598Z,32.07
2019-06-08T03:24:14.574Z,33.27
2019-06-08T03:26:48.916Z,34.20
2019-06-08T03:29:32.535Z,33.13
2019-06-08T03:32:05.657Z,29.97
2019-06-08T03:34:45.979Z,31.50
2019-06-08T03:37:13.149Z,31.37
2019-06-08T03:39:46.137Z,32.57
2019-06-08T03:42:19.121Z,30.63
2019-06-08T03:44:52.013Z,35.30
2019-06-08T03:47:24.705Z,35.83
2019-06-08T03:49:57.897Z,35.67
2019-06-08T03:52:31.076Z,34.97
2019-06-08T03:55:04.053Z,34.57
2019-06-08T03:57:38.203Z,36.47
2019-06-08T04:00:13.626Z,36.80
2019-06-08T04:02:47.717Z,38.10
2019-06-08T04:05:20.509Z,35.50
2019-06-08T04:07:53.124Z,37.43
2019-06-08T04:10:25.970Z,35.20
2019-06-08T04:12:58.952Z,35.63
2019-06-08T04:15:31.839Z,34.00
2019-06-08T04:18:04.721Z,32.90
2019-06-08T04:20:37.982Z,31.73
2019-06-08T04:23:11.217Z,30.70
2019-06-08T04:25:45.048Z,32.80
2019-06-08T04:28:18.727Z,34.17
2019-06-08T04:30:51.708Z,34.13
2019-06-08T04:33:24.691Z,33.73
2019-06-08T04:35:58.801Z,33.60
2019-06-08T04:38:31.587Z,33.80
2019-06-08T04:41:04.134Z,32.60
2019-06-08T04:43:38.476Z,33.07
2019-06-08T04:46:11.362Z,33.27
2019-06-08T04:48:45.351Z,32.77
2019-06-08T04:51:18.804Z,33.40
2019-06-08T04:53:51.651Z,33.83
2019-06-08T04:56:24.329Z,34.50
2019-06-08T04:58:56.618Z,31.50
2019-06-08T05:01:28.851Z,32.07
2019-06-08T05:04:01.159Z,31.93
2019-06-08T05:06:33.825Z,33.87
2019-06-08T05:09:09.117Z,29.93
2019-06-08T05:11:43.147Z,31.53
2019-06-08T05:14:15.739Z,31.30
2019-06-08T05:16:49.727Z,31.00
2019-06-08T05:19:23.154Z,29.97
2019-06-08T05:21:55.835Z,27.90
2019-06-08T05:24:28.327Z,30.50
2019-06-08T05:27:00.885Z,28.87
2019-06-08T05:29:33.564Z,26.70
2019-06-08T05:32:05.795Z,29.47
2019-06-08T05:34:39.343Z,28.27
2019-06-08T05:37:11.909Z,25.33
2019-06-08T05:39:45.554Z,24.77
2019-06-08T05:42:18.023Z,26.57
2019-06-08T05:44:50.672Z,25.90
2019-06-08T05:47:23.450Z,24.10
2019-06-08T05:49:56.225Z,24.83
2019-06-08T05:52:28.908Z,28.13
2019-06-08T05:55:01.896Z,28.67
2019-06-08T05:57:35.292Z,27.70
2019-06-08T06:00:13.025Z,26.00
2019-06-08T06:02:46.970Z,29.53
2019-06-08T06:05:19.983Z,28.87
2019-06-08T06:07:52.876Z,29.80
2019-06-08T06:10:26.907Z,29.80
2019-06-08T06:12:59.463Z,30.17
2019-06-08T06:15:32.442Z,28.77
2019-06-08T06:18:04.681Z,28.23
2019-06-08T06:20:37.901Z,30.23
2019-06-08T06:23:10.601Z,28.87
2019-06-08T06:25:43.419Z,30.57
2019-06-08T06:28:16.350Z,28.40
2019-06-08T06:30:50.105Z,28.03
2019-06-08T06:33:23.246Z,26.37
2019-06-08T06:35:55.923Z,23.37
2019-06-08T06:38:28.599Z,26.27
2019-06-08T06:41:00.986Z,25.63
2019-06-08T06:43:34.574Z,24.03
2019-06-08T06:46:07.354Z,25.77
2019-06-08T06:48:39.965Z,24.43
2019-06-08T06:51:25.273Z,25.67
2019-06-08T06:53:46.601Z,24.37
2019-06-08T06:56:19.303Z,24.37
2019-06-08T06:58:51.982Z,24.27
2019-06-08T07:01:24.665Z,23.47
2019-06-08T07:03:57.599Z,25.13
2019-06-08T07:06:30.350Z,25.80
2019-06-08T07:09:03.009Z,26.20
2019-06-08T07:11:36.007Z,24.07
2019-06-08T07:14:08.977Z,24.73
2019-06-08T07:16:41.575Z,22.67
2019-06-08T07:19:14.339Z,24.30
2019-06-08T07:21:48.291Z,24.03
2019-06-08T07:24:21.746Z,22.60
2019-06-08T07:26:54.643Z,25.30
2019-06-08T07:29:27.319Z,23.47
2019-06-08T07:31:59.991Z,24.40
2019-06-08T07:34:32.873Z,22.27
2019-06-08T07:37:05.604Z,21.50
2019-06-08T07:39:38.550Z,22.17
2019-06-08T07:42:11.320Z,21.47
2019-06-08T07:44:44.408Z,22.27
2019-06-08T07:47:17.290Z,21.73
2019-06-08T07:49:51.137Z,22.53
2019-06-08T07:52:23.879Z,19.07
2019-06-08T07:54:56.966Z,19.30
2019-06-08T07:57:29.751Z,19.80
2019-06-08T08:00:09.122Z,19.73
2019-06-08T08:02:37.259Z,20.27
2019-06-08T08:05:10.291Z,19.50
2019-06-08T08:07:43.026Z,21.07
2019-06-08T08:10:16.503Z,21.03
2019-06-08T08:12:49.314Z,18.37
2019-06-08T08:15:23.319Z,18.17
2019-06-08T08:17:57.673Z,18.87
2019-06-08T08:20:30.931Z,16.40
2019-06-08T08:23:06.195Z,16.80
2019-06-08T08:25:38.017Z,16.17
2019-06-08T08:28:10.917Z,15.93
2019-06-08T08:30:43.794Z,14.63
2019-06-08T08:33:18.435Z,15.00
2019-06-08T08:35:52.212Z,13.07
2019-06-08T08:38:27.315Z,11.07
2019-06-08T08:41:06.857Z,10.33
2019-06-08T08:43:34.769Z,7.77
2019-06-08T08:46:07.764Z,7.83
2019-06-08T08:48:40.744Z,7.57
2019-06-08T08:51:13.730Z,6.30
2019-06-08T08:53:48.140Z,5.20
2019-06-08T08:56:21.138Z,5.13
2019-06-08T08:58:56.559Z,4.13
2019-06-08T09:01:29.364Z,4.30
2019-06-08T09:04:04.979Z,3.73
2019-06-08T09:06:38.090Z,3.10
2019-06-08T09:09:10.642Z,3.30
2019-06-08T09:11:43.893Z,2.40
2019-06-08T09:14:18.635Z,2.50
2019-06-08T09:16:52.649Z,2.50
2019-06-08T09:19:27.906Z,2.40
2019-06-08T09:22:02.734Z,2.43
2019-06-08T09:24:38.792Z,2.00
2019-06-08T09:27:11.926Z,1.80
2019-06-08T09:29:44.717Z,1.80
2019-06-08T09:32:18.012Z,2.10
2019-06-08T09:34:52.923Z,1.97
2019-06-08T09:37:25.301Z,1.77
2019-06-08T09:39:58.979Z,2.07
2019-06-08T09:42:32.069Z,1.90
2019-06-08T09:45:11.919Z,2.10
2019-06-08T09:47:44.582Z,2.00
2019-06-08T09:50:18.675Z,1.90
2019-06-08T09:53:06.022Z,2.10
2019-06-08T09:55:25.365Z,1.73
2019-06-08T09:58:01.954Z,1.50
2019-06-08T10:00:32.281Z,1.60
2019-06-08T10:03:07.132Z,1.37
2019-06-08T10:05:39.798Z,1.30
2019-06-08T10:08:12.476Z,1.40
2019-06-08T10:10:45.159Z,1.30
2019-06-08T10:13:18.979Z,1.10
2019-06-08T10:15:51.863Z,0.90
2019-06-08T10:18:24.794Z,1.10
2019-06-08T10:21:00.662Z,0.93
2019-06-08T10:23:34.644Z,0.97
2019-06-08T10:26:06.787Z,1.10
2019-06-08T10:28:39.646Z,0.83
2019-06-08T10:31:12.326Z,0.80
2019-06-08T10:33:48.021Z,1.17
2019-06-08T10:36:19.630Z,0.80
2019-06-08T10:38:52.302Z,0.70
2019-06-08T10:41:27.655Z,0.80
2019-06-08T10:43:59.344Z,0.80
2019-06-08T10:46:31.980Z,1.00
2019-06-08T10:49:08.477Z,0.90
2019-06-08T10:51:40.805Z,0.87
2019-06-08T10:54:14.223Z,0.87
2019-06-08T10:56:48.564Z,1.20
2019-06-08T10:59:21.108Z,1.30
2019-06-08T11:01:54.109Z,1.23
2019-06-08T11:04:28.692Z,1.10
2019-06-08T11:07:07.216Z,1.23
2019-06-08T11:09:35.258Z,1.53
2019-06-08T11:12:14.328Z,1.40
2019-06-08T11:14:41.716Z,1.00
2019-06-08T11:17:14.379Z,1.20
2019-06-08T11:19:48.036Z,1.03
2019-06-08T11:22:20.858Z,0.90
2019-06-08T11:24:53.565Z,1.10
2019-06-08T11:27:28.538Z,0.80
2019-06-08T11:30:01.745Z,0.80
2019-06-08T11:32:34.418Z,0.63
2019-06-08T11:35:12.348Z,0.80
2019-06-08T11:37:45.245Z,0.80
2019-06-08T11:40:20.769Z,0.77
2019-06-08T11:42:54.998Z,0.70
2019-06-08T11:45:27.689Z,0.80
2019-06-08T11:48:00.545Z,0.50
2019-06-08T11:50:42.095Z,0.80
2019-06-08T11:53:17.846Z,0.60
2019-06-08T11:55:51.069Z,0.90
2019-06-08T11:58:28.325Z,0.90
2019-06-08T12:01:10.024Z,1.23
2019-06-08T12:03:39.803Z,0.80
2019-06-08T12:06:14.215Z,0.90
2019-06-08T12:08:47.323Z,0.80
2019-06-08T12:11:22.995Z,0.63
2019-06-08T12:13:54.800Z,1.10
2019-06-08T12:16:28.296Z,0.97
2019-06-08T12:19:01.822Z,1.03
2019-06-08T12:21:34.522Z,1.07
2019-06-08T12:24:08.273Z,0.97
2019-06-08T12:26:40.884Z,1.20
2019-06-08T12:29:14.978Z,0.90
2019-06-08T12:31:47.863Z,0.90
2019-06-08T12:34:20.120Z,1.30
2019-06-08T12:36:53.313Z,1.20
2019-06-08T12:39:28.174Z,1.30
2019-06-08T12:42:00.626Z,1.20
2019-06-08T12:44:33.309Z,1.40
2019-06-08T12:47:07.981Z,0.77
2019-06-08T12:49:40.494Z,0.90
2019-06-08T12:52:14.514Z,0.90
2019-06-08T12:54:59.297Z,0.70
2019-06-08T12:57:22.173Z,1.10
2019-06-08T12:59:54.893Z,1.00
2019-06-08T13:02:28.088Z,1.20
2019-06-08T13:05:00.923Z,0.87
2019-06-08T13:07:34.253Z,0.80
2019-06-08T13:10:08.859Z,1.03
2019-06-08T13:12:41.686Z,0.90
2019-06-08T13:15:14.769Z,1.17
2019-06-08T13:17:47.783Z,0.97
2019-06-08T13:20:23.249Z,0.90
2019-06-08T13:22:57.567Z,1.20
2019-06-08T13:25:39.659Z,1.00
2019-06-08T13:28:04.398Z,1.00
2019-06-08T13:30:39.012Z,1.00
2019-06-08T13:33:12.009Z,0.80
2019-06-08T13:35:47.827Z,1.10
2019-06-08T13:38:21.750Z,1.70
2019-06-08T13:40:53.738Z,1.00
2019-06-08T13:43:26.427Z,0.80
2019-06-08T13:45:59.095Z,0.90
2019-06-08T13:48:31.800Z,0.70
2019-06-08T13:51:04.467Z,0.80
2019-06-08T13:53:38.310Z,0.87
2019-06-08T13:56:11.159Z,0.70
2019-06-08T13:58:43.830Z,0.80
2019-06-08T14:01:17.656Z,0.87
2019-06-08T14:03:50.837Z,0.70
2019-06-08T14:06:24.902Z,1.03
2019-06-08T14:08:58.962Z,0.90
2019-06-08T14:11:31.631Z,0.60
2019-06-08T14:14:04.316Z,0.80
2019-06-08T14:16:38.922Z,0.70
2019-06-08T14:19:11.299Z,0.80
2019-06-08T14:21:44.002Z,0.70
2019-06-08T14:24:24.105Z,1.00
2019-06-08T14:26:53.242Z,0.70
2019-06-08T14:29:28.977Z,0.97
2019-06-08T14:32:01.463Z,0.77
2019-06-08T14:34:34.142Z,0.83
2019-06-08T14:37:08.638Z,1.00
2019-06-08T14:39:41.131Z,0.70
2019-06-08T14:42:13.591Z,0.63
2019-06-08T14:44:47.934Z,1.13
2019-06-08T14:47:20.942Z,0.70
2019-06-08T14:49:53.909Z,0.90
2019-06-08T14:52:29.718Z,0.60
2019-06-08T14:55:00.904Z,0.83
2019-06-08T14:57:33.587Z,0.77
2019-06-08T15:00:12.193Z,0.70
2019-06-08T15:02:43.029Z,0.60
2019-06-08T15:05:19.451Z,0.80
2019-06-08T15:07:51.158Z,0.70
2019-06-08T15:10:23.839Z,1.03
2019-06-08T15:12:57.745Z,1.07
2019-06-08T15:15:32.188Z,0.80
2019-06-08T15:18:07.796Z,0.70
2019-06-08T15:20:39.564Z,0.70
2019-06-08T15:23:12.245Z,0.77
2019-06-08T15:25:45.033Z,0.70
2019-06-08T15:28:18.212Z,0.83
2019-06-08T15:30:51.205Z,1.10
2019-06-08T15:33:24.895Z,1.20
2019-06-08T15:35:57.697Z,1.20
2019-06-08T15:38:32.417Z,1.10
2019-06-08T15:41:04.681Z,0.93
2019-06-08T15:43:39.576Z,1.30
2019-06-08T15:46:11.170Z,1.03
2019-06-08T15:48:43.766Z,1.00
2019-06-08T15:51:16.425Z,1.20
2019-06-08T15:53:49.109Z,1.00
2019-06-08T15:56:35.591Z,1.20
2019-06-08T15:58:56.002Z,1.00
2019-06-08T16:01:29.403Z,0.80
2019-06-08T16:04:04.155Z,1.20
2019-06-08T16:06:36.505Z,1.20
2019-06-08T16:09:10.466Z,1.30
2019-06-08T16:11:43.094Z,1.40
2019-06-08T16:14:15.822Z,0.83
2019-06-08T16:16:49.380Z,1.20
2019-06-08T16:19:23.423Z,1.00
2019-06-08T16:21:56.167Z,0.90
2019-06-08T16:24:29.771Z,1.30
2019-06-08T16:27:02.747Z,1.07
2019-06-08T16:29:35.431Z,1.43
2019-06-08T16:32:08.325Z,1.20
2019-06-08T16:34:41.038Z,1.40
2019-06-08T16:37:13.714Z,1.00
2019-06-08T16:39:46.354Z,1.20
2019-06-08T16:42:19.021Z,1.40
2019-06-08T16:44:51.916Z,1.00
2019-06-08T16:47:24.587Z,1.20
2019-06-08T16:49:57.282Z,1.30
2019-06-08T16:52:30.374Z,1.20
2019-06-08T16:55:03.045Z,1.30
2019-06-08T16:57:38.296Z,1.10
2019-06-08T17:02:45.390Z,1.10
2019-06-08T17:05:18.066Z,1.20
2019-06-08T17:07:50.336Z,1.47
2019-06-08T17:10:22.999Z,1.47
2019-06-08T17:12:55.682Z,1.23
2019-06-08T17:15:29.840Z,1.23
2019-06-08T17:18:03.223Z,1.30
2019-06-08T17:20:36.303Z,1.90
2019-06-08T17:23:09.068Z,1.20
2019-06-08T17:25:41.954Z,1.67
2019-06-08T17:28:14.625Z,1.27
2019-06-08T17:30:47.314Z,1.30
2019-06-08T17:33:20.005Z,1.17
2019-06-08T17:35:52.677Z,1.90
2019-06-08T17:38:24.942Z,2.33
2019-06-08T17:40:57.611Z,1.90
2019-06-08T17:43:30.307Z,1.17
2019-06-08T17:46:02.971Z,2.50
2019-06-08T17:48:36.468Z,1.80
2019-06-08T17:51:09.358Z,1.43
2019-06-08T17:53:43.254Z,2.23
2019-06-08T17:56:16.361Z,1.60
2019-06-08T17:58:49.042Z,1.50
2019-06-08T18:01:21.724Z,1.40
2019-06-08T18:03:54.402Z,2.50
2019-06-08T18:06:27.237Z,1.10
2019-06-08T18:08:59.961Z,1.50
2019-06-08T18:11:34.183Z,1.87
2019-06-08T18:14:07.445Z,1.50
2019-06-08T18:16:42.166Z,1.20
2019-06-08T18:19:30.341Z,1.53
2019-06-08T18:22:05.823Z,1.50
2019-06-08T18:24:39.439Z,1.30
2019-06-08T18:27:11.967Z,1.50
2019-06-08T18:29:46.100Z,1.50
2019-06-08T18:32:18.536Z,1.77
2019-06-08T18:34:50.758Z,1.53
2019-06-08T18:37:23.398Z,1.63
2019-06-08T18:39:57.854Z,2.20
2019-06-08T18:42:30.285Z,2.10
2019-06-08T18:45:02.971Z,2.50
2019-06-08T18:47:37.581Z,2.60
2019-06-08T18:50:09.542Z,1.70
2019-06-08T18:52:45.342Z,1.70
2019-06-08T18:55:18.550Z,1.63
2019-06-08T18:57:51.320Z,2.00
2019-06-08T19:00:34.630Z,2.30
2019-06-08T19:03:09.049Z,2.13
2019-06-08T19:05:45.657Z,2.00
2019-06-08T19:08:20.228Z,2.00
2019-06-08T19:10:52.913Z,2.37
2019-06-08T19:13:27.116Z,2.10
2019-06-08T19:15:59.986Z,2.50
2019-06-08T19:18:33.288Z,5.50
2019-06-08T19:21:07.737Z,7.30
2019-06-08T19:23:44.882Z,9.57
2019-06-08T19:26:22.889Z,10.10
2019-06-08T23:29:21.232Z,3.67
